Time;durP1;ratioP1;P1;durP2;ratioP2;P2;SDS_P1;SDS_P2;PMS_P1;PMS_P2;Temp;Humidity;BMP_temperature;BMP_pressure;BME280_temperature;BME280_humidity;BME280_pressure;Samples;Min_cycle;Max_cycle;Signal;HPM_P1;HPM_P2
2022/09/10 00:01:00;;;;;;;5.47;3.10;;;14.70;99.90;;;;;;5053230;28;20044;-65
2022/09/10 00:03:26;;;;;;;4.55;3.35;;;14.70;99.90;;;;;;5053141;28;20045;-65
2022/09/10 00:05:52;;;;;;;4.75;2.92;;;14.70;99.90;;;;;;5053127;28;20049;-65
2022/09/10 00:08:19;;;;;;;8.02;3.63;;;14.70;99.90;;;;;;5052689;28;20037;-65
2022/09/10 00:10:47;;;;;;;5.28;3.50;;;14.70;99.90;;;;;;5053040;28;20033;-65
2022/09/10 00:13:16;;;;;;;5.18;3.63;;;14.70;99.90;;;;;;5035008;28;20041;-65
2022/09/10 00:15:45;;;;;;;6.43;3.88;;;14.70;99.90;;;;;;5052752;28;20385;-65
2022/09/10 00:18:12;;;;;;;6.10;3.33;;;14.70;99.90;;;;;;5052660;28;20098;-65
2022/09/10 00:20:50;;;;;;;5.15;2.95;;;14.70;99.90;;;;;;5053050;28;20443;-65
2022/09/10 00:23:18;;;;;;;5.13;3.20;;;14.70;99.90;;;;;;5052666;28;20049;-65
2022/09/10 00:25:45;;;;;;;9.05;3.80;;;14.70;99.90;;;;;;5052701;28;20037;-65
2022/09/10 00:28:12;;;;;;;5.90;3.42;;;14.70;99.90;;;;;;5052916;28;20049;-65
2022/09/10 00:30:47;;;;;;;5.72;3.70;;;14.70;99.90;;;;;;5052634;28;20044;-64
2022/09/10 00:33:14;;;;;;;5.55;3.58;;;14.70;99.90;;;;;;5052838;28;20041;-64
2022/09/10 00:35:40;;;;;;;5.80;3.67;;;14.70;99.90;;;;;;5052856;28;20525;-64
2022/09/10 00:38:08;;;;;;;5.68;3.65;;;14.60;99.90;;;;;;5034804;28;20076;-65
2022/09/10 00:40:35;;;;;;;5.32;3.33;;;14.90;99.90;;;;;;5052799;28;20045;-65
2022/09/10 00:43:00;;;;;;;6.22;4.07;;;14.70;99.90;;;;;;5034928;28;20503;-65
2022/09/10 00:45:31;;;;;;;5.18;3.35;;;14.70;99.90;;;;;;5052741;28;20040;-64
2022/09/10 00:48:06;;;;;;;6.65;3.90;;;14.70;99.90;;;;;;5052703;28;20045;-64
2022/09/10 00:50:37;;;;;;;5.28;3.88;;;14.70;99.90;;;;;;5052700;28;20087;-65
2022/09/10 00:53:09;;;;;;;6.95;4.10;;;14.70;99.90;;;;;;5052417;28;20131;-64
2022/09/10 00:55:38;;;;;;;5.72;3.55;;;14.70;99.90;;;;;;5052459;28;20472;-65
2022/09/10 00:58:07;;;;;;;5.88;3.92;;;14.70;99.90;;;;;;5052667;28;20481;-65
2022/09/10 01:00:33;;;;;;;6.05;3.67;;;14.70;99.90;;;;;;5052657;28;20053;-65
2022/09/10 01:03:00;;;;;;;6.93;3.90;;;14.70;99.90;;;;;;5052357;28;20051;-64
2022/09/10 01:05:27;;;;;;;9.60;4.63;;;14.70;99.90;;;;;;5052877;28;20076;-65
2022/09/10 01:07:52;;;;;;;5.20;3.60;;;14.70;99.90;;;;;;5052259;28;20124;-64
2022/09/10 01:10:31;;;;;;;6.53;4.28;;;14.70;99.90;;;;;;5054153;28;20124;-65
2022/09/10 01:13:20;;;;;;;10.82;3.58;;;14.70;99.90;;;;;;5056351;28;20413;-65
2022/09/10 01:16:08;;;;;;;6.93;4.20;;;14.70;99.90;;;;;;5056138;28;20829;-65
2022/09/10 01:18:48;;;;;;;6.85;4.05;;;14.80;99.90;;;;;;5055943;28;20052;-64
2022/09/10 01:21:35;;;;;;;9.00;4.38;;;14.80;99.90;;;;;;5056131;28;20461;-64
2022/09/10 01:24:11;;;;;;;6.30;3.88;;;14.80;99.90;;;;;;5055830;28;20059;-65
2022/09/10 01:26:55;;;;;;;6.85;4.13;;;14.80;99.90;;;;;;5055827;28;20096;-64
2022/09/10 01:29:38;;;;;;;8.75;4.95;;;14.80;99.90;;;;;;5037876;28;20049;-64
2022/09/10 01:32:14;;;;;;;5.90;4.30;;;14.80;99.90;;;;;;5038209;28;20045;-65
2022/09/10 01:34:42;;;;;;;10.93;4.47;;;14.90;99.90;;;;;;5056226;28;20102;-65
2022/09/10 01:37:16;;;;;;;6.90;4.20;;;14.90;99.90;;;;;;5055880;28;20101;-65
2022/09/10 01:39:44;;;;;;;6.75;4.53;;;14.90;99.90;;;;;;5055799;28;20111;-64
2022/09/10 01:42:09;;;;;;;7.20;4.90;;;14.90;99.90;;;;;;5055505;28;20170;-64
2022/09/10 01:44:50;;;;;;;8.63;4.85;;;14.90;99.90;;;;;;5037500;28;20087;-64
2022/09/10 01:47:35;;;;;;;;;;;14.90;99.90;;;;;;5056059;28;20048;-65
2022/09/10 01:50:11;;;;;;;6.95;4.30;;;14.90;99.90;;;;;;5055584;28;19932;-65
2022/09/10 01:53:10;;;;;;;5.95;4.53;;;14.90;99.90;;;;;;5055527;28;20095;-65
2022/09/10 01:56:08;;;;;;;7.63;5.05;;;14.90;99.90;;;;;;5055431;28;20103;-64
2022/09/10 01:58:40;;;;;;;6.53;4.82;;;14.90;99.90;;;;;;5055164;28;20075;-65
2022/09/10 02:01:32;;;;;;;9.13;5.38;;;15.00;99.90;;;;;;5037458;28;20048;-64
2022/09/10 02:04:03;;;;;;;9.75;6.20;;;14.90;99.90;;;;;;5045071;28;20052;-65
2022/09/10 02:06:31;;;;;;;;;;;14.90;99.90;;;;;;5055734;28;20111;-65
2022/09/10 02:08:59;;;;;;;12.43;5.65;;;14.90;99.90;;;;;;5055179;28;19928;-65
2022/09/10 02:11:25;;;;;;;9.57;5.28;;;14.90;99.90;;;;;;5036968;28;20094;-65
2022/09/10 02:13:51;;;;;;;9.23;4.90;;;14.90;99.90;;;;;;5055148;28;20476;-65
2022/09/10 02:16:36;;;;;;;10.55;6.03;;;14.90;99.90;;;;;;5054784;28;20039;-65
2022/09/10 02:19:03;;;;;;;11.50;6.53;;;14.90;99.90;;;;;;5055063;28;20086;-65
2022/09/10 02:21:30;;;;;;;11.40;6.35;;;14.90;99.90;;;;;;5054384;28;20091;-65
2022/09/10 02:24:08;;;;;;;14.10;6.43;;;14.90;99.90;;;;;;5054770;28;20472;-64
2022/09/10 02:26:38;;;;;;;13.02;7.88;;;15.00;99.90;;;;;;5036704;28;20049;-64
2022/09/10 02:29:04;;;;;;;8.07;5.80;;;14.90;99.90;;;;;;5054575;28;20404;-65
2022/09/10 02:31:30;;;;;;;14.35;7.10;;;15.00;99.90;;;;;;5054865;28;20025;-64
2022/09/10 02:33:56;;;;;;;10.02;6.22;;;15.00;99.90;;;;;;5055062;28;20036;-64
2022/09/10 02:36:24;;;;;;;13.27;6.53;;;15.00;99.90;;;;;;5054768;28;20662;-64
2022/09/10 02:38:51;;;;;;;13.35;6.53;;;15.00;99.90;;;;;;5054728;28;20041;-65
2022/09/10 02:41:17;;;;;;;10.80;6.80;;;15.00;99.90;;;;;;5054615;28;20037;-64
2022/09/10 02:43:45;;;;;;;12.95;7.07;;;15.00;99.90;;;;;;5036476;28;20412;-65
2022/09/10 02:46:12;;;;;;;12.73;5.88;;;15.00;99.90;;;;;;5054283;28;20041;-64
2022/09/10 02:48:38;;;;;;;10.75;5.53;;;15.00;99.90;;;;;;5054491;28;20049;-64
2022/09/10 02:51:04;;;;;;;11.35;6.88;;;15.00;99.90;;;;;;5054419;28;20041;-65
2022/09/10 02:53:30;;;;;;;9.98;6.28;;;15.00;99.90;;;;;;5054404;28;20041;-65
2022/09/10 02:55:56;;;;;;;10.63;5.57;;;15.00;99.90;;;;;;5054391;28;20137;-64
2022/09/10 02:58:22;;;;;;;10.40;6.25;;;15.10;99.90;;;;;;5054292;28;20548;-65
2022/09/10 03:00:48;;;;;;;11.70;6.57;;;15.00;99.90;;;;;;5054284;28;20116;-65
2022/09/10 03:03:16;;;;;;;10.85;6.50;;;15.00;99.90;;;;;;5035966;28;20076;-65
2022/09/10 03:05:42;;;;;;;11.00;5.90;;;15.00;99.90;;;;;;5054476;28;20064;-65
2022/09/10 03:08:09;;;;;;;14.57;7.03;;;15.10;99.90;;;;;;5053766;28;20049;-65
2022/09/10 03:10:35;;;;;;;9.70;5.95;;;15.00;99.90;;;;;;5035935;28;20041;-65
2022/09/10 03:13:01;;;;;;;12.23;6.50;;;15.00;99.90;;;;;;5053869;28;20044;-65
2022/09/10 03:15:27;;;;;;;11.10;5.78;;;15.10;99.90;;;;;;5054037;28;20401;-65
2022/09/10 03:17:53;;;;;;;10.05;5.90;;;15.00;99.90;;;;;;5053909;28;20124;-65
2022/09/10 03:20:21;;;;;;;9.25;5.70;;;15.00;99.90;;;;;;5053911;28;20113;-65
2022/09/10 03:22:50;;;;;;;9.80;6.03;;;15.00;99.90;;;;;;5053617;28;20567;-64
2022/09/10 03:25:17;;;;;;;10.20;5.97;;;15.00;99.90;;;;;;5053803;28;20043;-65
2022/09/10 03:27:42;;;;;;;8.80;5.68;;;15.00;99.90;;;;;;5053367;28;20140;-64
2022/09/10 03:30:09;;;;;;;8.27;5.07;;;15.00;99.90;;;;;;5053377;28;20124;-65
2022/09/10 03:32:36;;;;;;;8.60;5.90;;;15.00;99.90;;;;;;5053008;28;20044;-65
2022/09/10 03:35:01;;;;;;;9.98;5.70;;;15.00;99.90;;;;;;5053899;28;20072;-64
2022/09/10 03:37:27;;;;;;;8.73;5.55;;;15.00;99.90;;;;;;5035386;28;20077;-65
2022/09/10 03:39:53;;;;;;;7.88;5.72;;;15.00;99.90;;;;;;5035452;28;20071;-65
2022/09/10 03:42:18;;;;;;;7.72;5.60;;;15.00;99.90;;;;;;5053442;28;20037;-64
2022/09/10 03:44:44;;;;;;;10.07;5.50;;;15.00;99.90;;;;;;5053428;28;20120;-65
2022/09/10 03:47:11;;;;;;;8.70;5.78;;;15.00;99.90;;;;;;5053455;28;20451;-65
2022/09/10 03:49:36;;;;;;;11.40;6.28;;;15.00;99.90;;;;;;5053300;28;20049;-65
2022/09/10 03:52:02;;;;;;;9.88;5.88;;;15.00;99.90;;;;;;5053076;28;20041;-65
2022/09/10 03:54:27;;;;;;;10.48;5.65;;;15.00;99.90;;;;;;5053227;28;20045;-65
2022/09/10 03:56:53;;;;;;;10.55;6.53;;;15.00;99.90;;;;;;5053311;28;20439;-65
2022/09/10 03:59:19;;;;;;;7.95;5.28;;;15.00;99.90;;;;;;5035181;28;20484;-65
2022/09/10 04:01:45;;;;;;;12.10;6.60;;;15.00;99.90;;;;;;5053215;28;20033;-65
2022/09/10 04:04:11;;;;;;;9.75;5.97;;;15.00;99.90;;;;;;5035332;28;20080;-65
2022/09/10 04:06:38;;;;;;;10.07;5.82;;;15.00;99.90;;;;;;5053150;28;20377;-65
2022/09/10 04:09:04;;;;;;;12.63;6.30;;;15.00;99.90;;;;;;5053116;28;20041;-65
2022/09/10 04:11:29;;;;;;;8.55;5.32;;;14.90;99.90;;;;;;5052817;28;20044;-64
2022/09/10 04:13:55;;;;;;;9.02;5.47;;;15.00;99.90;;;;;;5019027;28;20036;-65
2022/09/10 04:16:22;;;;;;;11.88;5.95;;;15.00;99.90;;;;;;5035214;28;20079;-65
2022/09/10 04:18:48;;;;;;;9.05;5.72;;;15.00;99.90;;;;;;5052752;28;20437;-65
2022/09/10 04:21:14;;;;;;;10.57;5.82;;;15.00;99.90;;;;;;5052723;28;20056;-65
2022/09/10 04:23:40;;;;;;;12.77;5.75;;;15.00;99.90;;;;;;5035145;28;20037;-65
2022/09/10 04:26:11;;;;;;;9.38;6.20;;;15.00;99.90;;;;;;5034929;28;20501;-65
2022/09/10 04:28:37;;;;;;;13.32;6.43;;;15.00;99.90;;;;;;5052715;28;20045;-65
2022/09/10 04:31:02;;;;;;;7.32;5.10;;;15.00;99.90;;;;;;5035136;28;20116;-65
2022/09/10 04:33:28;;;;;;;9.93;6.13;;;15.00;99.90;;;;;;5052589;28;20037;-65
2022/09/10 04:35:55;;;;;;;11.10;6.43;;;15.00;99.90;;;;;;5053116;28;20039;-65
2022/09/10 04:38:20;;;;;;;9.82;5.10;;;15.00;99.90;;;;;;5052772;28;20045;-65
2022/09/10 04:40:46;;;;;;;9.00;5.90;;;15.00;99.90;;;;;;5052808;28;20045;-65
2022/09/10 04:43:12;;;;;;;10.63;5.63;;;15.00;99.90;;;;;;5052935;28;20040;-65
2022/09/10 04:45:40;;;;;;;10.40;5.50;;;15.00;99.90;;;;;;5056854;28;20040;-65
2022/09/10 04:48:05;;;;;;;9.50;6.18;;;15.00;99.90;;;;;;5038629;28;20119;-65
2022/09/10 04:50:31;;;;;;;14.00;6.40;;;15.20;99.90;;;;;;5056758;28;20460;-65
2022/09/10 04:52:57;;;;;;;9.70;5.72;;;15.00;99.90;;;;;;5056746;28;20077;-65
2022/09/10 04:55:24;;;;;;;10.77;6.35;;;15.00;99.90;;;;;;5056587;28;20427;-64
2022/09/10 04:57:50;;;;;;;8.98;5.43;;;15.00;99.90;;;;;;5056695;28;20044;-64
2022/09/10 05:00:16;;;;;;;9.25;6.05;;;15.00;99.90;;;;;;5056344;28;20037;-65
2022/09/10 05:02:42;;;;;;;9.80;5.53;;;15.00;99.90;;;;;;5056627;28;20041;-65
2022/09/10 05:05:09;;;;;;;10.65;6.15;;;15.00;99.90;;;;;;5038710;28;20064;-65
2022/09/10 05:07:34;;;;;;;8.82;6.30;;;15.00;99.90;;;;;;5056458;28;20083;-65
2022/09/10 05:10:00;;;;;;;9.68;5.90;;;15.00;99.90;;;;;;5056418;28;20053;-65
2022/09/10 05:12:27;;;;;;;11.07;6.03;;;15.00;99.90;;;;;;5056501;28;20443;-65
2022/09/10 05:14:53;;;;;;;12.32;6.82;;;15.00;99.90;;;;;;5038427;28;20052;-65
2022/09/10 05:17:19;;;;;;;10.38;6.07;;;15.10;99.90;;;;;;5056278;28;20048;-65
2022/09/10 05:19:46;;;;;;;12.38;5.55;;;15.00;99.90;;;;;;5055942;28;20068;-65
2022/09/10 05:22:12;;;;;;;9.65;6.38;;;15.10;99.90;;;;;;5055896;28;20385;-65
2022/09/10 05:24:38;;;;;;;12.95;6.80;;;15.10;99.90;;;;;;5055892;28;20045;-65
2022/09/10 05:27:05;;;;;;;9.80;6.20;;;15.10;99.90;;;;;;5021487;28;20056;-65
2022/09/10 05:29:31;;;;;;;9.80;6.13;;;15.10;99.90;;;;;;5056002;28;20052;-65
2022/09/10 05:31:57;;;;;;;8.50;5.35;;;15.30;99.90;;;;;;5038225;28;20086;-65
2022/09/10 05:34:23;;;;;;;10.82;6.30;;;15.10;99.90;;;;;;5038046;28;20120;-65
2022/09/10 05:36:49;;;;;;;15.30;6.32;;;15.10;99.90;;;;;;5055652;28;20080;-65
2022/09/10 05:39:15;;;;;;;13.65;7.03;;;15.40;99.90;;;;;;5055495;28;20037;-65
2022/09/10 05:41:42;;;;;;;11.52;6.80;;;15.10;99.90;;;;;;5055385;28;20059;-65
2022/09/10 05:44:08;;;;;;;11.07;5.63;;;15.10;99.90;;;;;;5055753;28;20092;-65
2022/09/10 05:46:35;;;;;;;9.32;5.45;;;15.10;99.90;;;;;;5055653;28;20041;-65
2022/09/10 05:49:02;;;;;;;10.63;6.63;;;15.20;99.90;;;;;;5037687;28;20128;-65
2022/09/10 05:51:29;;;;;;;10.88;6.22;;;15.20;99.90;;;;;;5055603;28;20396;-64
2022/09/10 05:53:56;;;;;;;10.82;5.85;;;15.20;99.90;;;;;;5037449;28;20182;-64
2022/09/10 05:56:24;;;;;;;11.48;6.10;;;15.20;99.90;;;;;;5054757;28;20102;-65
2022/09/10 05:58:50;;;;;;;8.07;5.25;;;15.20;99.90;;;;;;5053363;28;20052;-65
2022/09/10 06:01:15;;;;;;;12.25;6.05;;;15.20;99.90;;;;;;5037493;28;20044;-65
2022/09/10 06:03:43;;;;;;;9.50;5.82;;;15.20;99.90;;;;;;5055669;28;20045;-65
2022/09/10 06:06:10;;;;;;;13.57;5.90;;;15.20;99.90;;;;;;5055024;28;20045;-64
2022/09/10 06:08:35;;;;;;;9.95;5.93;;;15.20;99.90;;;;;;5035657;28;20048;-65
2022/09/10 06:11:04;;;;;;;14.05;7.00;;;15.20;99.90;;;;;;5055356;28;20043;-64
2022/09/10 06:13:37;;;;;;;10.07;5.68;;;15.20;99.90;;;;;;5054927;28;20056;-64
2022/09/10 06:16:03;;;;;;;11.82;6.65;;;15.30;99.90;;;;;;5054897;28;20044;-64
2022/09/10 06:18:30;;;;;;;11.48;6.05;;;15.30;99.90;;;;;;5055156;28;20495;-65
2022/09/10 06:21:04;;;;;;;10.00;5.88;;;15.30;99.90;;;;;;5054801;28;20048;-65
2022/09/10 06:23:30;;;;;;;9.35;5.38;;;15.30;99.90;;;;;;5054048;28;20399;-64
2022/09/10 06:26:08;;;;;;;9.52;5.90;;;15.30;99.90;;;;;;5054763;28;20122;-65
2022/09/10 06:28:36;;;;;;;11.80;6.78;;;15.30;99.90;;;;;;5054949;28;20041;-64
2022/09/10 06:31:10;;;;;;;12.07;6.45;;;15.30;99.90;;;;;;5054800;28;20037;-64
2022/09/10 06:33:47;;;;;;;8.23;5.10;;;15.30;99.90;;;;;;5054944;28;20044;-65
2022/09/10 06:36:14;;;;;;;;;;;15.30;99.90;;;;;;5054961;28;20389;-65
2022/09/10 06:38:40;;;;;;;11.40;6.20;;;15.30;99.90;;;;;;5054469;28;19932;-64
2022/09/10 06:41:10;;;;;;;10.93;6.05;;;15.40;99.90;;;;;;5054426;28;20041;-63
2022/09/10 06:43:38;;;;;;;12.80;6.23;;;15.40;99.90;;;;;;5036786;28;20124;-62
2022/09/10 06:46:12;;;;;;;10.40;6.22;;;15.40;99.90;;;;;;5054268;28;20125;-65
2022/09/10 06:48:41;;;;;;;16.65;7.15;;;15.40;99.90;;;;;;5054237;28;20492;-64
2022/09/10 06:51:09;;;;;;;12.27;6.82;;;15.40;99.90;;;;;;5054212;28;20109;-66
2022/09/10 06:53:35;;;;;;;18.25;7.25;;;15.40;99.90;;;;;;5054409;28;20112;-64
2022/09/10 06:56:04;;;;;;;11.55;6.95;;;15.50;99.90;;;;;;5054079;28;20037;-66
2022/09/10 06:58:32;;;;;;;10.05;6.35;;;15.50;99.90;;;;;;5054388;28;20044;-64
2022/09/10 07:01:04;;;;;;;11.30;6.72;;;15.50;99.90;;;;;;5054001;28;20076;-62
2022/09/10 07:03:29;;;;;;;16.95;7.43;;;15.50;99.90;;;;;;5053981;28;20045;-64
2022/09/10 07:05:55;;;;;;;10.30;6.47;;;15.50;99.90;;;;;;5036498;28;20045;-64
2022/09/10 07:08:21;;;;;;;15.90;6.05;;;15.50;99.90;;;;;;5053195;28;20488;-64
2022/09/10 07:10:50;;;;;;;13.20;6.50;;;15.60;99.90;;;;;;5036225;28;20045;-64
2022/09/10 07:13:16;;;;;;;14.55;6.80;;;15.50;99.90;;;;;;5053439;28;20030;-65
2022/09/10 07:15:46;;;;;;;14.23;6.80;;;15.60;99.90;;;;;;5053873;28;20040;-65
2022/09/10 07:18:13;;;;;;;12.60;6.45;;;15.60;99.90;;;;;;5035867;28;20123;-65
2022/09/10 07:20:42;;;;;;;11.77;7.22;;;15.60;99.90;;;;;;5053435;28;20102;-65
2022/09/10 07:23:09;;;;;;;11.55;6.63;;;15.60;99.90;;;;;;5053421;28;20045;-65
2022/09/10 07:25:34;;;;;;;11.93;7.00;;;15.60;99.90;;;;;;5053528;28;20048;-65
2022/09/10 07:28:00;;;;;;;13.70;6.80;;;15.60;99.90;;;;;;5053316;28;20098;-64
2022/09/10 07:30:28;;;;;;;18.65;6.88;;;15.60;99.90;;;;;;5053527;28;20044;-64
2022/09/10 07:32:54;;;;;;;15.88;7.10;;;15.70;99.90;;;;;;5053638;28;20450;-64
2022/09/10 07:35:20;;;;;;;12.65;6.85;;;15.70;99.90;;;;;;5067437;28;20051;-64
2022/09/10 07:37:46;;;;;;;12.82;7.28;;;15.60;99.90;;;;;;5073684;28;20115;-64
2022/09/10 07:40:12;;;;;;;13.52;6.63;;;15.70;99.90;;;;;;5073372;28;20066;-64
2022/09/10 07:42:38;;;;;;;15.52;8.05;;;15.70;99.90;;;;;;5072999;28;20090;-64
2022/09/10 07:45:04;;;;;;;13.57;7.22;;;15.80;99.90;;;;;;5073262;28;20040;-64
2022/09/10 07:47:33;;;;;;;15.45;7.60;;;15.80;99.90;;;;;;5073235;28;20382;-70
2022/09/10 07:49:59;;;;;;;17.02;7.97;;;15.80;99.90;;;;;;5038331;28;20043;-67
2022/09/10 07:52:25;;;;;;;11.55;6.85;;;15.80;99.90;;;;;;5073096;28;20039;-67
2022/09/10 07:54:50;;;;;;;17.25;6.97;;;15.80;99.90;;;;;;5072979;28;20483;-63
2022/09/10 07:57:16;;;;;;;12.82;7.47;;;15.90;99.90;;;;;;5073194;28;20120;-64
2022/09/10 07:59:42;;;;;;;13.43;7.50;;;15.90;99.90;;;;;;5073123;28;20048;-64
2022/09/10 08:02:17;;;;;;;12.73;7.50;;;15.90;99.90;;;;;;5038300;28;20040;-64
2022/09/10 08:04:42;;;;;;;13.55;7.93;;;15.90;99.90;;;;;;5064033;28;20083;-64
2022/09/10 08:07:08;;;;;;;12.77;7.35;;;15.90;99.90;;;;;;5018450;28;20095;-64
2022/09/10 08:09:34;;;;;;;12.48;7.30;;;15.90;99.90;;;;;;5034894;28;20048;-64
2022/09/10 08:11:59;;;;;;;13.63;7.18;;;15.90;99.90;;;;;;5052873;28;20041;-64
2022/09/10 08:14:25;;;;;;;17.40;7.57;;;16.00;99.90;;;;;;5052837;28;20041;-65
2022/09/10 08:16:51;;;;;;;15.43;6.95;;;16.00;99.90;;;;;;5052649;28;20041;-64
2022/09/10 08:19:17;;;;;;;16.55;6.85;;;16.00;99.90;;;;;;5034514;28;20044;-64
2022/09/10 08:21:44;;;;;;;14.95;8.40;;;16.10;99.90;;;;;;5034893;28;20041;-64
2022/09/10 08:24:10;;;;;;;12.13;6.68;;;16.10;99.90;;;;;;5035469;28;20068;-64
2022/09/10 08:26:35;;;;;;;13.32;7.93;;;16.10;99.90;;;;;;5052734;28;20041;-64
2022/09/10 08:29:01;;;;;;;14.25;7.10;;;16.10;99.90;;;;;;5052819;28;20052;-63
2022/09/10 08:31:27;;;;;;;18.00;7.25;;;16.20;99.90;;;;;;5052902;28;20048;-64
2022/09/10 08:33:55;;;;;;;15.70;7.32;;;16.20;99.90;;;;;;5018725;28;20052;-65
2022/09/10 08:36:22;;;;;;;21.40;8.10;;;16.30;99.90;;;;;;5052462;28;20123;-64
2022/09/10 08:38:49;;;;;;;16.67;7.53;;;16.30;99.90;;;;;;5052863;28;20544;-64
2022/09/10 08:41:24;;;;;;;13.68;7.63;;;16.40;99.90;;;;;;5052776;28;20131;-63
2022/09/10 08:44:24;;;;;;;12.25;7.55;;;16.50;99.90;;;;;;5052541;28;20095;-64
2022/09/10 08:47:06;;;;;;;12.07;7.53;;;16.60;99.90;;;;;;5026964;28;20080;-64
2022/09/10 08:49:44;;;;;;;12.95;7.55;;;16.70;99.90;;;;;;5052327;28;20037;-64
2022/09/10 08:52:10;;;;;;;14.80;7.50;;;16.80;99.90;;;;;;5052650;28;20130;-65
2022/09/10 08:54:58;;;;;;;18.25;8.43;;;;;;;;;;5052655;28;20388;-64
2022/09/10 08:57:35;;;;;;;15.20;7.88;;;17.10;99.90;;;;;;5052557;28;20489;-68
2022/09/10 09:00:02;;;;;;;15.25;7.70;;;17.20;99.90;;;;;;5052528;28;20040;-63
2022/09/10 09:02:44;;;;;;;11.60;7.72;;;17.30;99.90;;;;;;5034406;28;20056;-63
2022/09/10 09:05:20;;;;;;;11.52;7.35;;;17.40;99.90;;;;;;5052925;28;20041;-65
2022/09/10 09:07:47;;;;;;;11.27;6.43;;;17.40;99.90;;;;;;5052576;28;20041;-64
2022/09/10 09:10:36;;;;;;;11.60;5.80;;;17.40;99.90;;;;;;5052122;28;20048;-64
2022/09/10 09:13:46;;;;;;;17.38;6.63;;;17.50;99.90;;;;;;5051582;28;20492;-64
2022/09/10 09:16:29;;;;;;;12.93;6.90;;;17.60;99.90;;;;;;5034639;28;20502;-64
2022/09/10 09:19:30;;;;;;;10.57;6.13;;;17.60;99.90;;;;;;5052438;28;20392;-64
2022/09/10 09:22:04;;;;;;;10.30;6.50;;;17.70;99.90;;;;;;5052155;28;20044;-64
2022/09/10 09:24:33;;;;;;;10.60;5.53;;;17.80;99.90;;;;;;5052414;28;20048;-63
2022/09/10 09:27:08;;;;;;;15.10;6.53;;;17.80;99.90;;;;;;5052065;28;20467;-64
2022/09/10 09:29:55;;;;;;;10.23;6.28;;;17.80;99.90;;;;;;5052299;28;20078;-63
2022/09/10 09:32:22;;;;;;;11.80;6.30;;;17.80;99.90;;;;;;5055678;28;20119;-64
2022/09/10 09:35:02;;;;;;;13.50;6.20;;;17.80;99.90;;;;;;5056025;28;20104;-64
2022/09/10 09:37:30;;;;;;;10.38;5.85;;;17.80;99.90;;;;;;5055943;28;20033;-64
2022/09/10 09:40:04;;;;;;;12.10;5.97;;;17.80;99.90;;;;;;5055924;28;20039;-64
2022/09/10 09:42:39;;;;;;;10.65;5.72;;;17.90;99.90;;;;;;5038065;28;20566;-64
2022/09/10 09:45:24;;;;;;;10.25;5.78;;;18.00;99.90;;;;;;5055740;28;20047;-64
2022/09/10 09:47:51;;;;;;;12.15;6.13;;;18.00;99.90;;;;;;5037612;28;20107;-64
2022/09/10 09:50:17;;;;;;;11.45;5.97;;;18.10;99.90;;;;;;5055384;28;20088;-64
2022/09/10 09:52:44;;;;;;;10.75;6.35;;;;;;;;;;5055668;28;20037;-64
2022/09/10 09:55:38;;;;;;;10.65;6.07;;;18.40;99.90;;;;;;5055655;28;20073;-65
2022/09/10 09:58:29;;;;;;;12.65;5.35;;;18.60;99.90;;;;;;5055645;28;20518;-65
2022/09/10 10:01:03;;;;;;;8.57;5.50;;;18.60;99.90;;;;;;5055520;28;20112;-65
2022/09/10 10:03:36;;;;;;;8.48;5.03;;;18.60;99.90;;;;;;5055130;28;20041;-64
2022/09/10 10:06:07;;;;;;;10.50;5.50;;;18.70;99.90;;;;;;5055408;28;20480;-65
2022/09/10 10:08:38;;;;;;;7.78;5.00;;;18.70;99.90;;;;;;5055228;28;20053;-65
2022/09/10 10:11:05;;;;;;;8.70;5.20;;;18.70;99.90;;;;;;5055330;28;20502;-65
2022/09/10 10:13:42;;;;;;;9.70;5.18;;;18.50;99.90;;;;;;5055294;28;20037;-65
2022/09/10 10:16:21;;;;;;;12.05;5.13;;;18.60;99.90;;;;;;5055275;28;20064;-65
2022/09/10 10:18:48;;;;;;;10.30;5.65;;;18.60;99.90;;;;;;5055162;28;20040;-65
2022/09/10 10:21:30;;;;;;;8.68;4.35;;;18.70;99.90;;;;;;5055040;28;20040;-65
2022/09/10 10:23:56;;;;;;;6.20;4.00;;;18.70;99.90;;;;;;5055094;28;20182;-65
2022/09/10 10:26:31;;;;;;;7.88;4.65;;;18.80;99.90;;;;;;5016980;28;20097;-64
2022/09/10 10:29:05;;;;;;;8.27;4.50;;;18.90;99.90;;;;;;5034925;28;20128;-65
2022/09/10 10:31:38;;;;;;;7.80;4.68;;;18.90;99.90;;;;;;5034694;28;20056;-65
2022/09/10 10:34:15;;;;;;;12.85;5.10;;;18.90;99.90;;;;;;5035259;28;20045;-65
2022/09/10 10:37:03;;;;;;;12.23;4.32;;;19.00;99.90;;;;;;5034613;28;20120;-65
2022/09/10 10:39:41;;;;;;;8.60;4.57;;;19.00;99.90;;;;;;5033212;28;20377;-66
2022/09/10 10:42:28;;;;;;;8.43;4.38;;;19.00;99.90;;;;;;5034628;28;20120;-65
2022/09/10 10:45:24;;;;;;;9.75;5.15;;;19.10;99.90;;;;;;5034511;28;20076;-65
2022/09/10 10:47:56;;;;;;;7.68;4.50;;;;;;;;;;5033567;28;20061;-64
2022/09/10 10:50:41;;;;;;;7.53;4.32;;;;;;;;;;5034255;28;20046;-65
2022/09/10 10:53:17;;;;;;;7.45;3.75;;;19.20;99.90;;;;;;5032926;28;20050;-65
2022/09/10 10:55:55;;;;;;;10.45;4.07;;;19.30;99.90;;;;;;5034507;28;20115;-65
2022/09/10 10:58:38;;;;;;;9.20;4.10;;;;;;;;;;5034416;28;20496;-65
2022/09/10 11:01:13;;;;;;;9.10;4.30;;;;;;;;;;5034142;28;20401;-65
2022/09/10 11:03:50;;;;;;;6.72;4.00;;;;;;;;;;5034565;28;20037;-65
2022/09/10 11:06:22;;;;;;;7.07;3.97;;;19.70;99.90;;;;;;5013222;28;20516;-65
2022/09/10 11:08:52;;;;;;;6.10;3.85;;;19.40;99.90;;;;;;5014459;28;20053;-65
2022/09/10 11:11:50;;;;;;;8.10;4.45;;;19.30;99.90;;;;;;5014462;28;20030;-65
2022/09/10 11:14:26;;;;;;;7.15;4.15;;;19.70;99.90;;;;;;5013986;28;20041;-66
2022/09/10 11:17:09;;;;;;;8.15;3.60;;;19.60;99.90;;;;;;5014164;28;20045;-65
2022/09/10 11:19:53;;;;;;;9.93;4.32;;;;;;;;;;5014122;28;20045;-65
2022/09/10 11:22:27;;;;;;;8.07;4.32;;;;;;;;;;5013857;28;20042;-65
2022/09/10 11:24:53;;;;;;;8.63;4.05;;;19.70;99.90;;;;;;5014028;28;20046;-65
2022/09/10 11:27:50;;;;;;;8.48;4.10;;;19.80;99.90;;;;;;5012427;28;20505;-64
2022/09/10 11:30:18;;;;;;;9.32;4.30;;;20.00;99.90;;;;;;5001952;28;20062;-64
2022/09/10 11:33:10;;;;;;;6.05;3.88;;;19.90;97.00;;;;;;5014043;28;20053;-64
2022/09/10 11:36:10;;;;;;;9.32;3.88;;;19.90;98.00;;;;;;5030306;28;20041;-65
2022/09/10 11:38:56;;;;;;;;;;;19.90;96.60;;;;;;4950579;28;20081;-64
2022/09/10 11:41:26;;;;;;;7.88;4.35;;;19.90;96.80;;;;;;5015989;28;20295;-64
2022/09/10 11:44:16;;;;;;;9.77;2.92;;;19.90;97.60;;;;;;5033613;28;20041;-65
2022/09/10 11:47:03;;;;;;;4.72;3.30;;;19.80;95.80;;;;;;5033285;28;20053;-65
2022/09/10 11:49:47;;;;;;;6.53;3.42;;;19.90;96.90;;;;;;5033513;28;20385;-65
2022/09/10 11:52:14;;;;;;;6.43;2.95;;;19.90;97.50;;;;;;5015870;28;20495;-65
2022/09/10 11:54:41;;;;;;;6.00;2.97;;;20.00;98.70;;;;;;5015355;28;20069;-65
2022/09/10 11:57:17;;;;;;;10.65;3.55;;;20.00;97.00;;;;;;5033204;28;20112;-65
2022/09/10 12:00:08;;;;;;;6.70;3.42;;;20.10;96.60;;;;;;5032952;28;20045;-65
2022/09/10 12:03:12;;;;;;;6.15;3.22;;;20.30;94.80;;;;;;5033215;28;20081;-65
2022/09/10 12:05:53;;;;;;;5.95;3.42;;;20.20;95.80;;;;;;5033276;28;20073;-64
2022/09/10 12:08:44;;;;;;;7.32;3.65;;;20.30;96.60;;;;;;5015136;28;20103;-65
2022/09/10 12:11:30;;;;;;;7.07;3.53;;;20.30;95.50;;;;;;5032937;28;20038;-65
2022/09/10 12:13:57;;;;;;;4.95;3.03;;;20.20;93.90;;;;;;5032959;28;20041;-64
2022/09/10 12:16:51;;;;;;;6.60;3.47;;;20.20;93.90;;;;;;5033118;28;20532;-65
2022/09/10 12:19:21;;;;;;;5.03;3.22;;;20.30;94.20;;;;;;5029725;28;20111;-64
2022/09/10 12:21:55;;;;;;;7.10;2.92;;;20.30;94.20;;;;;;5032845;28;20095;-64
2022/09/10 12:24:27;;;;;;;6.75;3.80;;;20.30;92.70;;;;;;5033058;28;20033;-65
2022/09/10 12:26:53;;;;;;;9.55;3.15;;;20.30;92.40;;;;;;5032725;28;20053;-64
2022/09/10 12:29:30;;;;;;;5.68;3.13;;;20.40;95.40;;;;;;5032626;28;20132;-64
2022/09/10 12:32:11;;;;;;;4.65;2.65;;;20.50;94.00;;;;;;5032959;28;20040;-65
2022/09/10 12:34:38;;;;;;;5.97;2.88;;;20.50;93.80;;;;;;5032674;28;20041;-65
2022/09/10 12:37:03;;;;;;;4.63;2.72;;;20.30;90.50;;;;;;5032663;28;20037;-65
2022/09/10 12:39:30;;;;;;;5.03;2.67;;;20.50;94.00;;;;;;5032953;28;20045;-65
2022/09/10 12:42:02;;;;;;;8.15;3.28;;;20.60;96.10;;;;;;5032892;28;20042;-65
2022/09/10 12:44:33;;;;;;;5.22;2.63;;;20.70;93.70;;;;;;5015183;28;20548;-65
2022/09/10 12:47:17;;;;;;;4.65;2.65;;;20.60;92.90;;;;;;5032616;28;20041;-65
2022/09/10 12:49:52;;;;;;;6.03;3.03;;;20.60;87.10;;;;;;5032579;28;20049;-65
2022/09/10 12:52:33;;;;;;;5.03;3.20;;;20.50;91.60;;;;;;5014690;28;20080;-65
2022/09/10 12:55:21;;;;;;;5.00;3.13;;;20.50;92.60;;;;;;5032795;28;20034;-65
2022/09/10 12:57:52;;;;;;;5.40;2.97;;;20.50;91.60;;;;;;5032609;28;20052;-66
2022/09/10 13:00:22;;;;;;;5.07;3.08;;;20.50;92.60;;;;;;5032725;28;20119;-67
2022/09/10 13:03:05;;;;;;;4.88;2.42;;;20.50;93.60;;;;;;5032705;28;20042;-66
2022/09/10 13:05:53;;;;;;;3.67;2.40;;;20.60;92.80;;;;;;5034568;28;20045;-65
2022/09/10 13:08:28;;;;;;;3.28;2.10;;;20.50;91.60;;;;;;5036390;28;20504;-66